Pick City, North Dakota
Current Conditions -  °F | °C
As of 9:15 PM on Sunday 23 Nov 2014 (Local Time) from KHZE Reporting Station
Broken Clouds Broken Clouds  
Wind Chill:   Ceiling: 1700
Heat Index: 16°   Visibility: 10mi
Dew Point: 10°   Wind: 16mph
Humidity: 79%   Direction: 320°NW
Pressure: 29.76"   Gusts: 23mph
Location:  47.396°N, 101.602°W
Report Text: KHZE 240415Z AUTO 32014G20KT 10SM BKN017 M09/M12 A2976 RMK AO2
Loading
Personal Weather Stations






























Interactive Weather Map New forecast layout! Learn more

10-Day Weather Forecast

Advertisements
Track Severe Weather on mobile